Amado, Arizona
Current Conditions -  °F | °C
As of 11:54 AM on Saturday 25 Oct 2014 (Local Time) from KOLS Reporting Station
Clear Clear  
Wind Chill: 87°   Ceiling: Unl
Heat Index: 87°   Visibility: 10mi
Dew Point: 46°   Wind: 0mph
Humidity: 24%   Direction: NA
Pressure: 30.18"   Gusts: NA
Location:  31.71°N, 111.07°W
Report Text: KOLS 251854Z AUTO 00000KT 10SM CLR 31/08 A3018 RMK AO2 SLP155 T03060078
Loading
Personal Weather Stations






























Interactive Weather Map New forecast layout! Learn more

10-Day Weather Forecast

Advertisements
Track Severe Weather on mobile